sensor_id;sensor_type;location;lat;lon;timestamp;temperature;humidity
64951;DHT22;51482;47.014;7.652;2023-02-15T00:00:15;1.60;99.90
64951;DHT22;51482;47.014;7.652;2023-02-15T00:02:40;1.40;99.90
64951;DHT22;51482;47.014;7.652;2023-02-15T00:05:07;1.30;99.90
64951;DHT22;51482;47.014;7.652;2023-02-15T00:07:32;1.30;99.90
64951;DHT22;51482;47.014;7.652;2023-02-15T00:09:58;1.30;99.90
64951;DHT22;51482;47.014;7.652;2023-02-15T00:12:24;1.30;99.90
64951;DHT22;51482;47.014;7.652;2023-02-15T00:14:49;1.80;99.90
64951;DHT22;51482;47.014;7.652;2023-02-15T00:17:15;1.20;99.90
64951;DHT22;51482;47.014;7.652;2023-02-15T00:19:40;1.70;99.90
64951;DHT22;51482;47.014;7.652;2023-02-15T00:22:06;1.80;99.90
64951;DHT22;51482;47.014;7.652;2023-02-15T00:24:32;1.30;99.90
64951;DHT22;51482;47.014;7.652;2023-02-15T00:26:58;1.80;99.90
64951;DHT22;51482;47.014;7.652;2023-02-15T00:29:23;1.60;99.90
64951;DHT22;51482;47.014;7.652;2023-02-15T00:31:49;1.30;99.90
64951;DHT22;51482;47.014;7.652;2023-02-15T00:34:19;0.80;99.90
64951;DHT22;51482;47.014;7.652;2023-02-15T00:36:46;1.70;99.90
64951;DHT22;51482;47.014;7.652;2023-02-15T00:39:12;1.00;99.90
64951;DHT22;51482;47.014;7.652;2023-02-15T00:41:38;0.90;99.90
64951;DHT22;51482;47.014;7.652;2023-02-15T00:44:04;1.60;99.90
64951;DHT22;51482;47.014;7.652;2023-02-15T00:46:31;1.60;99.90
64951;DHT22;51482;47.014;7.652;2023-02-15T00:48:56;0.60;99.90
64951;DHT22;51482;47.014;7.652;2023-02-15T00:51:22;1.60;99.90
64951;DHT22;51482;47.014;7.652;2023-02-15T00:53:47;1.50;99.90
64951;DHT22;51482;47.014;7.652;2023-02-15T00:56:13;1.00;99.90
64951;DHT22;51482;47.014;7.652;2023-02-15T00:58:39;1.40;99.90
64951;DHT22;51482;47.014;7.652;2023-02-15T01:01:15;0.80;99.90
64951;DHT22;51482;47.014;7.652;2023-02-15T01:03:42;0.90;99.90
64951;DHT22;51482;47.014;7.652;2023-02-15T01:06:08;1.50;99.90
64951;DHT22;51482;47.014;7.652;2023-02-15T01:08:33;1.00;99.90
64951;DHT22;51482;47.014;7.652;2023-02-15T01:11:10;1.40;99.90
64951;DHT22;51482;47.014;7.652;2023-02-15T01:13:35;0.80;99.90
64951;DHT22;51482;47.014;7.652;2023-02-15T01:16:02;0.90;99.90
64951;DHT22;51482;47.014;7.652;2023-02-15T01:18:28;1.50;99.90
64951;DHT22;51482;47.014;7.652;2023-02-15T01:20:54;0.90;99.90
64951;DHT22;51482;47.014;7.652;2023-02-15T01:23:19;1.50;99.90
64951;DHT22;51482;47.014;7.652;2023-02-15T01:25:45;1.40;99.90
64951;DHT22;51482;47.014;7.652;2023-02-15T01:28:10;1.40;99.90
64951;DHT22;51482;47.014;7.652;2023-02-15T01:30:36;1.40;99.90
64951;DHT22;51482;47.014;7.652;2023-02-15T01:33:02;1.40;99.90
64951;DHT22;51482;47.014;7.652;2023-02-15T01:35:28;0.70;99.90
64951;DHT22;51482;47.014;7.652;2023-02-15T01:37:55;1.30;99.90
64951;DHT22;51482;47.014;7.652;2023-02-15T01:40:20;1.20;99.90
64951;DHT22;51482;47.014;7.652;2023-02-15T01:42:50;0.70;99.90
64951;DHT22;51482;47.014;7.652;2023-02-15T01:47:52;1.30;99.90
64951;DHT22;51482;47.014;7.652;2023-02-15T01:50:42;1.00;99.90
64951;DHT22;51482;47.014;7.652;2023-02-15T01:53:34;0.50;99.90
64951;DHT22;51482;47.014;7.652;2023-02-15T01:56:05;0.40;99.90
64951;DHT22;51482;47.014;7.652;2023-02-15T01:58:32;0.70;99.90
64951;DHT22;51482;47.014;7.652;2023-02-15T02:01:00;0.20;99.90
64951;DHT22;51482;47.014;7.652;2023-02-15T02:03:59;0.80;99.90
64951;DHT22;51482;47.014;7.652;2023-02-15T02:06:22;0.10;99.90
64951;DHT22;51482;47.014;7.652;2023-02-15T02:08:48;0.80;99.90
64951;DHT22;51482;47.014;7.652;2023-02-15T02:11:14;0.80;99.90
64951;DHT22;51482;47.014;7.652;2023-02-15T02:13:42;0.80;99.90
64951;DHT22;51482;47.014;7.652;2023-02-15T02:16:13;0.90;99.90
64951;DHT22;51482;47.014;7.652;2023-02-15T02:19:10;0.20;99.90
64951;DHT22;51482;47.014;7.652;2023-02-15T02:27:34;0.20;99.90
64951;DHT22;51482;47.014;7.652;2023-02-15T02:30:44;0.20;99.90
64951;DHT22;51482;47.014;7.652;2023-02-15T02:33:31;0.20;99.90
64951;DHT22;51482;47.014;7.652;2023-02-15T02:46:53;0.70;99.90
64951;DHT22;51482;47.014;7.652;2023-02-15T02:49:32;0.20;99.90
64951;DHT22;51482;47.014;7.652;2023-02-15T02:52:04;0.50;99.90
64951;DHT22;51482;47.014;7.652;2023-02-15T02:54:31;0.80;99.90
64951;DHT22;51482;47.014;7.652;2023-02-15T02:56:59;0.80;99.90
64951;DHT22;51482;47.014;7.652;2023-02-15T02:59:34;0.90;99.90
64951;DHT22;51482;47.014;7.652;2023-02-15T03:02:08;-0.20;99.90
64951;DHT22;51482;47.014;7.652;2023-02-15T03:04:49;0.20;99.90
64951;DHT22;51482;47.014;7.652;2023-02-15T03:07:25;0.90;99.90
64951;DHT22;51482;47.014;7.652;2023-02-15T03:09:54;0.40;99.90
64951;DHT22;51482;47.014;7.652;2023-02-15T03:12:34;0.60;99.90
64951;DHT22;51482;47.014;7.652;2023-02-15T03:15:09;0.70;99.90
64951;DHT22;51482;47.014;7.652;2023-02-15T03:17:40;0.10;99.90
64951;DHT22;51482;47.014;7.652;2023-02-15T03:20:23;0.00;99.90
64951;DHT22;51482;47.014;7.652;2023-02-15T03:23:06;0.00;99.90
64951;DHT22;51482;47.014;7.652;2023-02-15T03:25:44;0.80;99.90
64951;DHT22;51482;47.014;7.652;2023-02-15T03:28:19;0.70;99.90
64951;DHT22;51482;47.014;7.652;2023-02-15T03:30:49;0.20;99.90
64951;DHT22;51482;47.014;7.652;2023-02-15T03:33:17;0.70;99.90
64951;DHT22;51482;47.014;7.652;2023-02-15T03:36:01;0.70;99.90
64951;DHT22;51482;47.014;7.652;2023-02-15T03:38:44;0.20;99.90
64951;DHT22;51482;47.014;7.652;2023-02-15T03:41:14;0.60;99.90
64951;DHT22;51482;47.014;7.652;2023-02-15T03:43:58;0.10;99.90
64951;DHT22;51482;47.014;7.652;2023-02-15T03:46:28;0.70;99.90
64951;DHT22;51482;47.014;7.652;2023-02-15T03:51:57;0.60;99.90
64951;DHT22;51482;47.014;7.652;2023-02-15T03:54:26;0.60;99.90
64951;DHT22;51482;47.014;7.652;2023-02-15T03:57:12;0.50;99.90
64951;DHT22;51482;47.014;7.652;2023-02-15T04:00:02;0.60;99.90
64951;DHT22;51482;47.014;7.652;2023-02-15T04:02:59;0.70;99.90
64951;DHT22;51482;47.014;7.652;2023-02-15T04:05:27;0.10;99.90
64951;DHT22;51482;47.014;7.652;2023-02-15T04:07:52;0.00;99.90
64951;DHT22;51482;47.014;7.652;2023-02-15T04:10:18;0.50;99.90
64951;DHT22;51482;47.014;7.652;2023-02-15T04:13:02;0.70;99.90
64951;DHT22;51482;47.014;7.652;2023-02-15T04:15:28;0.60;99.90
64951;DHT22;51482;47.014;7.652;2023-02-15T04:18:14;0.80;99.90
64951;DHT22;51482;47.014;7.652;2023-02-15T04:20:43;0.10;99.90
64951;DHT22;51482;47.014;7.652;2023-02-15T04:23:28;0.20;99.90
64951;DHT22;51482;47.014;7.652;2023-02-15T04:26:12;0.70;99.90
64951;DHT22;51482;47.014;7.652;2023-02-15T04:28:37;0.80;99.90
64951;DHT22;51482;47.014;7.652;2023-02-15T04:31:03;0.80;99.90
64951;DHT22;51482;47.014;7.652;2023-02-15T04:33:28;0.00;99.90
64951;DHT22;51482;47.014;7.652;2023-02-15T04:35:54;0.00;99.90
64951;DHT22;51482;47.014;7.652;2023-02-15T04:38:19;0.50;99.90
64951;DHT22;51482;47.014;7.652;2023-02-15T04:40:50;0.60;99.90
64951;DHT22;51482;47.014;7.652;2023-02-15T04:43:16;0.60;99.90
64951;DHT22;51482;47.014;7.652;2023-02-15T04:45:41;0.50;99.90
64951;DHT22;51482;47.014;7.652;2023-02-15T04:48:12;0.80;99.90
64951;DHT22;51482;47.014;7.652;2023-02-15T04:50:37;-0.10;99.90
64951;DHT22;51482;47.014;7.652;2023-02-15T04:53:03;0.50;99.90
64951;DHT22;51482;47.014;7.652;2023-02-15T04:55:28;-0.30;99.90
64951;DHT22;51482;47.014;7.652;2023-02-15T04:57:54;-0.40;99.90
64951;DHT22;51482;47.014;7.652;2023-02-15T05:00:19;0.30;99.90
64951;DHT22;51482;47.014;7.652;2023-02-15T05:02:45;-0.30;99.90
64951;DHT22;51482;47.014;7.652;2023-02-15T05:05:10;0.50;99.90
64951;DHT22;51482;47.014;7.652;2023-02-15T05:07:38;0.20;99.90
64951;DHT22;51482;47.014;7.652;2023-02-15T05:10:03;-0.20;99.90
64951;DHT22;51482;47.014;7.652;2023-02-15T05:12:29;-0.30;99.90
64951;DHT22;51482;47.014;7.652;2023-02-15T05:14:55;-0.20;99.90
64951;DHT22;51482;47.014;7.652;2023-02-15T05:17:20;0.30;99.90
64951;DHT22;51482;47.014;7.652;2023-02-15T05:19:46;0.20;99.90
64951;DHT22;51482;47.014;7.652;2023-02-15T05:22:11;0.30;99.90
64951;DHT22;51482;47.014;7.652;2023-02-15T05:24:37;0.20;99.90
64951;DHT22;51482;47.014;7.652;2023-02-15T05:27:21;0.20;99.90
64951;DHT22;51482;47.014;7.652;2023-02-15T05:30:06;0.00;99.90
64951;DHT22;51482;47.014;7.652;2023-02-15T05:32:37;-0.50;99.90
64951;DHT22;51482;47.014;7.652;2023-02-15T05:35:04;-0.10;99.90
64951;DHT22;51482;47.014;7.652;2023-02-15T05:37:29;-0.40;99.90
64951;DHT22;51482;47.014;7.652;2023-02-15T05:39:55;0.00;99.90
64951;DHT22;51482;47.014;7.652;2023-02-15T05:42:20;0.00;99.90
64951;DHT22;51482;47.014;7.652;2023-02-15T05:44:46;0.20;99.90
64951;DHT22;51482;47.014;7.652;2023-02-15T05:47:11;-0.30;99.90
64951;DHT22;51482;47.014;7.652;2023-02-15T05:49:37;0.10;99.90
64951;DHT22;51482;47.014;7.652;2023-02-15T05:52:03;-0.10;99.90
64951;DHT22;51482;47.014;7.652;2023-02-15T05:54:28;0.30;99.90
64951;DHT22;51482;47.014;7.652;2023-02-15T05:56:54;0.20;99.90
64951;DHT22;51482;47.014;7.652;2023-02-15T05:59:19;0.10;99.90
64951;DHT22;51482;47.014;7.652;2023-02-15T06:01:45;0.10;99.90
64951;DHT22;51482;47.014;7.652;2023-02-15T06:04:10;-0.10;99.90
64951;DHT22;51482;47.014;7.652;2023-02-15T06:06:36;-0.90;99.90
64951;DHT22;51482;47.014;7.652;2023-02-15T06:09:02;0.40;99.90
64951;DHT22;51482;47.014;7.652;2023-02-15T06:11:27;0.00;99.90
64951;DHT22;51482;47.014;7.652;2023-02-15T06:13:53;-0.60;99.90
64951;DHT22;51482;47.014;7.652;2023-02-15T06:16:18;0.10;99.90
64951;DHT22;51482;47.014;7.652;2023-02-15T06:18:44;-0.50;99.90
64951;DHT22;51482;47.014;7.652;2023-02-15T06:21:09;-0.50;99.90
64951;DHT22;51482;47.014;7.652;2023-02-15T06:23:35;0.00;99.90
64951;DHT22;51482;47.014;7.652;2023-02-15T06:26:00;0.10;99.90
64951;DHT22;51482;47.014;7.652;2023-02-15T06:28:26;-0.20;99.90
64951;DHT22;51482;47.014;7.652;2023-02-15T06:30:52;0.00;99.90
64951;DHT22;51482;47.014;7.652;2023-02-15T06:33:17;0.10;99.90
64951;DHT22;51482;47.014;7.652;2023-02-15T06:35:43;0.20;99.90
64951;DHT22;51482;47.014;7.652;2023-02-15T06:38:08;-0.40;99.90
64951;DHT22;51482;47.014;7.652;2023-02-15T06:40:34;0.10;99.90
64951;DHT22;51482;47.014;7.652;2023-02-15T06:42:59;0.20;99.90
64951;DHT22;51482;47.014;7.652;2023-02-15T06:45:25;0.30;99.90
64951;DHT22;51482;47.014;7.652;2023-02-15T06:47:50;-0.50;99.90
64951;DHT22;51482;47.014;7.652;2023-02-15T06:50:16;0.00;99.90
64951;DHT22;51482;47.014;7.652;2023-02-15T06:52:41;0.10;99.90
64951;DHT22;51482;47.014;7.652;2023-02-15T06:55:07;-0.60;99.90
64951;DHT22;51482;47.014;7.652;2023-02-15T06:57:33;0.00;99.90
64951;DHT22;51482;47.014;7.652;2023-02-15T06:59:58;-0.40;99.90
64951;DHT22;51482;47.014;7.652;2023-02-15T07:02:24;0.20;99.90
64951;DHT22;51482;47.014;7.652;2023-02-15T07:04:50;0.10;99.90
64951;DHT22;51482;47.014;7.652;2023-02-15T07:07:15;0.20;99.90
64951;DHT22;51482;47.014;7.652;2023-02-15T07:09:41;0.30;99.90
64951;DHT22;51482;47.014;7.652;2023-02-15T07:12:06;0.20;99.90
64951;DHT22;51482;47.014;7.652;2023-02-15T07:14:51;0.30;99.90
64951;DHT22;51482;47.014;7.652;2023-02-15T07:17:16;-0.40;99.90
64951;DHT22;51482;47.014;7.652;2023-02-15T07:19:43;0.40;99.90
64951;DHT22;51482;47.014;7.652;2023-02-15T07:22:08;0.40;99.90
64951;DHT22;51482;47.014;7.652;2023-02-15T07:24:34;0.40;99.90
64951;DHT22;51482;47.014;7.652;2023-02-15T07:26:59;0.50;99.90
64951;DHT22;51482;47.014;7.652;2023-02-15T07:29:25;0.50;99.90
64951;DHT22;51482;47.014;7.652;2023-02-15T07:31:51;0.40;99.90
64951;DHT22;51482;47.014;7.652;2023-02-15T07:34:16;1.00;99.90
64951;DHT22;51482;47.014;7.652;2023-02-15T07:36:42;1.10;99.90
64951;DHT22;51482;47.014;7.652;2023-02-15T07:39:10;0.90;99.90
64951;DHT22;51482;47.014;7.652;2023-02-15T07:41:35;1.10;99.90
64951;DHT22;51482;47.014;7.652;2023-02-15T07:44:01;0.90;99.90
64951;DHT22;51482;47.014;7.652;2023-02-15T07:46:26;1.40;99.90
64951;DHT22;51482;47.014;7.652;2023-02-15T07:48:52;1.60;99.90
64951;DHT22;51482;47.014;7.652;2023-02-15T07:51:17;1.80;99.90
64951;DHT22;51482;47.014;7.652;2023-02-15T07:53:43;1.90;99.90
64951;DHT22;51482;47.014;7.652;2023-02-15T07:56:13;2.20;99.90
64951;DHT22;51482;47.014;7.652;2023-02-15T07:58:39;2.60;99.90
64951;DHT22;51482;47.014;7.652;2023-02-15T08:01:19;2.70;99.90
64951;DHT22;51482;47.014;7.652;2023-02-15T08:03:45;3.00;99.90
64951;DHT22;51482;47.014;7.652;2023-02-15T08:06:10;3.30;99.90
64951;DHT22;51482;47.014;7.652;2023-02-15T08:08:40;3.40;99.90
64951;DHT22;51482;47.014;7.652;2023-02-15T08:14:08;3.80;99.90
64951;DHT22;51482;47.014;7.652;2023-02-15T08:16:37;3.30;99.90
64951;DHT22;51482;47.014;7.652;2023-02-15T08:21:38;3.50;99.90
64951;DHT22;51482;47.014;7.652;2023-02-15T08:24:05;3.50;99.90
64951;DHT22;51482;47.014;7.652;2023-02-15T08:26:31;4.20;99.90
64951;DHT22;51482;47.014;7.652;2023-02-15T08:28:57;3.90;99.90
64951;DHT22;51482;47.014;7.652;2023-02-15T08:31:23;4.50;99.90
64951;DHT22;51482;47.014;7.652;2023-02-15T08:33:50;4.80;99.90
64951;DHT22;51482;47.014;7.652;2023-02-15T08:36:19;4.50;99.90
64951;DHT22;51482;47.014;7.652;2023-02-15T08:38:46;5.20;99.90
64951;DHT22;51482;47.014;7.652;2023-02-15T08:41:24;5.00;99.90
64951;DHT22;51482;47.014;7.652;2023-02-15T08:43:52;4.80;99.90
64951;DHT22;51482;47.014;7.652;2023-02-15T08:46:19;5.70;99.90
64951;DHT22;51482;47.014;7.652;2023-02-15T08:48:46;5.70;99.90
64951;DHT22;51482;47.014;7.652;2023-02-15T08:51:20;6.00;99.90
64951;DHT22;51482;47.014;7.652;2023-02-15T08:53:48;5.80;99.90
64951;DHT22;51482;47.014;7.652;2023-02-15T08:56:15;6.10;99.90
64951;DHT22;51482;47.014;7.652;2023-02-15T08:58:40;6.10;99.90
64951;DHT22;51482;47.014;7.652;2023-02-15T09:01:18;6.70;99.90
64951;DHT22;51482;47.014;7.652;2023-02-15T09:03:46;7.00;99.90
64951;DHT22;51482;47.014;7.652;2023-02-15T09:06:12;7.10;99.90
64951;DHT22;51482;47.014;7.652;2023-02-15T09:08:38;7.10;99.90
64951;DHT22;51482;47.014;7.652;2023-02-15T09:11:14;7.30;99.90
64951;DHT22;51482;47.014;7.652;2023-02-15T09:13:48;7.60;99.90
64951;DHT22;51482;47.014;7.652;2023-02-15T09:16:14;7.70;99.90
64951;DHT22;51482;47.014;7.652;2023-02-15T09:18:42;8.20;99.90
64951;DHT22;51482;47.014;7.652;2023-02-15T09:21:13;8.60;99.90
64951;DHT22;51482;47.014;7.652;2023-02-15T09:23:41;8.90;99.90
64951;DHT22;51482;47.014;7.652;2023-02-15T09:26:12;9.30;99.90
64951;DHT22;51482;47.014;7.652;2023-02-15T09:28:38;9.70;99.90
64951;DHT22;51482;47.014;7.652;2023-02-15T09:31:13;10.00;99.90
64951;DHT22;51482;47.014;7.652;2023-02-15T09:33:41;10.40;99.90
64951;DHT22;51482;47.014;7.652;2023-02-15T09:36:15;10.80;99.90
64951;DHT22;51482;47.014;7.652;2023-02-15T09:38:41;11.20;99.90
64951;DHT22;51482;47.014;7.652;2023-02-15T09:47:01;12.10;98.40
64951;DHT22;51482;47.014;7.652;2023-02-15T09:52:35;12.70;96.10
64951;DHT22;51482;47.014;7.652;2023-02-15T09:55:24;12.70;93.10
64951;DHT22;51482;47.014;7.652;2023-02-15T09:58:24;13.10;94.60
64951;DHT22;51482;47.014;7.652;2023-02-15T10:01:11;13.30;93.30
64951;DHT22;51482;47.014;7.652;2023-02-15T10:09:40;14.10;84.70
64951;DHT22;51482;47.014;7.652;2023-02-15T10:14:40;14.50;77.40
64951;DHT22;51482;47.014;7.652;2023-02-15T10:25:50;15.30;70.70
64951;DHT22;51482;47.014;7.652;2023-02-15T10:28:25;15.50;70.00
64951;DHT22;51482;47.014;7.652;2023-02-15T10:30:57;15.60;70.00
64951;DHT22;51482;47.014;7.652;2023-02-15T10:33:39;15.80;70.00
64951;DHT22;51482;47.014;7.652;2023-02-15T10:44:34;16.80;72.00
64951;DHT22;51482;47.014;7.652;2023-02-15T10:52:48;17.00;64.80
64951;DHT22;51482;47.014;7.652;2023-02-15T11:01:17;17.30;66.70
64951;DHT22;51482;47.014;7.652;2023-02-15T11:06:44;18.00;66.30
64951;DHT22;51482;47.014;7.652;2023-02-15T11:09:15;18.10;64.10
64951;DHT22;51482;47.014;7.652;2023-02-15T11:11:46;18.40;60.50
64951;DHT22;51482;47.014;7.652;2023-02-15T11:17:09;18.50;58.40
64951;DHT22;51482;47.014;7.652;2023-02-15T11:19:53;18.80;59.20
64951;DHT22;51482;47.014;7.652;2023-02-15T11:22:19;18.80;57.20
64951;DHT22;51482;47.014;7.652;2023-02-15T11:24:46;18.90;58.40
64951;DHT22;51482;47.014;7.652;2023-02-15T11:29:41;19.10;56.30
64951;DHT22;51482;47.014;7.652;2023-02-15T11:35:51;19.20;55.40
64951;DHT22;51482;47.014;7.652;2023-02-15T11:38:14;19.40;55.30
64951;DHT22;51482;47.014;7.652;2023-02-15T11:40:47;19.70;54.70
64951;DHT22;51482;47.014;7.652;2023-02-15T11:45:59;19.60;54.40
64951;DHT22;51482;47.014;7.652;2023-02-15T11:48:25;19.60;53.40
64951;DHT22;51482;47.014;7.652;2023-02-15T11:50:50;19.80;54.40
64951;DHT22;51482;47.014;7.652;2023-02-15T11:53:21;19.80;53.20
64951;DHT22;51482;47.014;7.652;2023-02-15T11:55:50;20.60;53.70
64951;DHT22;51482;47.014;7.652;2023-02-15T11:58:30;20.00;52.40
64951;DHT22;51482;47.014;7.652;2023-02-15T12:01:14;20.10;52.10
64951;DHT22;51482;47.014;7.652;2023-02-15T12:06:37;20.60;52.30
64951;DHT22;51482;47.014;7.652;2023-02-15T12:09:29;20.40;50.80
64951;DHT22;51482;47.014;7.652;2023-02-15T12:12:24;21.00;51.40
64951;DHT22;51482;47.014;7.652;2023-02-15T12:14:54;20.80;51.10
64951;DHT22;51482;47.014;7.652;2023-02-15T12:17:28;20.60;49.50
64951;DHT22;51482;47.014;7.652;2023-02-15T12:20:00;21.70;50.40
64951;DHT22;51482;47.014;7.652;2023-02-15T12:22:33;21.20;49.80
64951;DHT22;51482;47.014;7.652;2023-02-15T12:25:01;21.60;49.10
64951;DHT22;51482;47.014;7.652;2023-02-15T12:27:32;22.20;49.50
64951;DHT22;51482;47.014;7.652;2023-02-15T12:30:07;21.70;47.70
64951;DHT22;51482;47.014;7.652;2023-02-15T12:33:15;21.80;47.80
64951;DHT22;51482;47.014;7.652;2023-02-15T12:35:42;22.00;47.20
64951;DHT22;51482;47.014;7.652;2023-02-15T12:40:35;22.00;46.40
64951;DHT22;51482;47.014;7.652;2023-02-15T12:43:01;22.10;47.10
64951;DHT22;51482;47.014;7.652;2023-02-15T12:45:35;22.10;46.20
64951;DHT22;51482;47.014;7.652;2023-02-15T12:48:16;22.30;46.00
64951;DHT22;51482;47.014;7.652;2023-02-15T12:50:46;22.40;45.80
64951;DHT22;51482;47.014;7.652;2023-02-15T12:55:51;22.20;43.80
64951;DHT22;51482;47.014;7.652;2023-02-15T12:58:25;22.50;45.20
64951;DHT22;51482;47.014;7.652;2023-02-15T13:01:15;22.70;44.10
64951;DHT22;51482;47.014;7.652;2023-02-15T13:04:01;22.30;44.20
64951;DHT22;51482;47.014;7.652;2023-02-15T13:06:31;23.20;45.30
64951;DHT22;51482;47.014;7.652;2023-02-15T13:09:13;22.80;44.60
64951;DHT22;51482;47.014;7.652;2023-02-15T13:11:42;22.90;43.80
64951;DHT22;51482;47.014;7.652;2023-02-15T13:14:18;22.90;44.10
64951;DHT22;51482;47.014;7.652;2023-02-15T13:16:47;22.90;44.40
64951;DHT22;51482;47.014;7.652;2023-02-15T13:19:16;22.90;44.80
64951;DHT22;51482;47.014;7.652;2023-02-15T13:21:47;23.00;44.70
64951;DHT22;51482;47.014;7.652;2023-02-15T13:24:35;23.00;45.20
64951;DHT22;51482;47.014;7.652;2023-02-15T13:27:03;23.10;44.90
64951;DHT22;51482;47.014;7.652;2023-02-15T13:29:34;23.60;44.10
64951;DHT22;51482;47.014;7.652;2023-02-15T13:32:10;23.00;44.80
64951;DHT22;51482;47.014;7.652;2023-02-15T13:34:38;23.00;43.40
64951;DHT22;51482;47.014;7.652;2023-02-15T13:40:11;23.30;44.20
64951;DHT22;51482;47.014;7.652;2023-02-15T13:43:02;23.60;44.20
64951;DHT22;51482;47.014;7.652;2023-02-15T13:45:35;23.40;43.70
64951;DHT22;51482;47.014;7.652;2023-02-15T13:48:21;23.60;44.00
64951;DHT22;51482;47.014;7.652;2023-02-15T13:56:30;23.60;43.60
64951;DHT22;51482;47.014;7.652;2023-02-15T14:01:57;23.50;43.70
64951;DHT22;51482;47.014;7.652;2023-02-15T14:04:42;23.80;43.90
64951;DHT22;51482;47.014;7.652;2023-02-15T14:07:33;23.40;43.10
64951;DHT22;51482;47.014;7.652;2023-02-15T14:10:20;23.40;44.00
64951;DHT22;51482;47.014;7.652;2023-02-15T14:16:01;23.70;44.10
64951;DHT22;51482;47.014;7.652;2023-02-15T14:24:08;24.00;44.10
64951;DHT22;51482;47.014;7.652;2023-02-15T14:29:41;23.90;43.70
64951;DHT22;51482;47.014;7.652;2023-02-15T14:32:16;23.80;43.70
64951;DHT22;51482;47.014;7.652;2023-02-15T14:34:51;23.70;43.70
64951;DHT22;51482;47.014;7.652;2023-02-15T14:37:24;23.80;44.20
64951;DHT22;51482;47.014;7.652;2023-02-15T14:40:00;23.70;44.60
64951;DHT22;51482;47.014;7.652;2023-02-15T14:43:11;23.70;43.60
64951;DHT22;51482;47.014;7.652;2023-02-15T14:45:44;23.70;44.50
64951;DHT22;51482;47.014;7.652;2023-02-15T14:48:41;23.70;44.70
64951;DHT22;51482;47.014;7.652;2023-02-15T14:51:09;23.60;44.00
64951;DHT22;51482;47.014;7.652;2023-02-15T14:53:36;23.60;44.30
64951;DHT22;51482;47.014;7.652;2023-02-15T15:01:30;23.20;45.20
64951;DHT22;51482;47.014;7.652;2023-02-15T15:04:01;23.00;45.50
64951;DHT22;51482;47.014;7.652;2023-02-15T15:06:40;22.90;45.70
64951;DHT22;51482;47.014;7.652;2023-02-15T15:09:25;22.60;46.00
64951;DHT22;51482;47.014;7.652;2023-02-15T15:11:53;22.40;47.00
64951;DHT22;51482;47.014;7.652;2023-02-15T15:17:01;21.80;48.20
64951;DHT22;51482;47.014;7.652;2023-02-15T15:22:22;21.60;48.70
64951;DHT22;51482;47.014;7.652;2023-02-15T15:24:50;21.40;48.50
64951;DHT22;51482;47.014;7.652;2023-02-15T15:27:46;21.40;48.90
64951;DHT22;51482;47.014;7.652;2023-02-15T15:41:16;20.70;49.50
64951;DHT22;51482;47.014;7.652;2023-02-15T15:44:11;20.50;50.30
64951;DHT22;51482;47.014;7.652;2023-02-15T15:49:29;20.30;50.50
64951;DHT22;51482;47.014;7.652;2023-02-15T15:51:55;20.00;50.50
64951;DHT22;51482;47.014;7.652;2023-02-15T15:54:26;19.80;51.20
64951;DHT22;51482;47.014;7.652;2023-02-15T15:57:02;19.80;51.30
64951;DHT22;51482;47.014;7.652;2023-02-15T15:59:30;19.80;51.90
64951;DHT22;51482;47.014;7.652;2023-02-15T16:02:04;19.50;51.40
64951;DHT22;51482;47.014;7.652;2023-02-15T16:04:33;19.20;51.60
64951;DHT22;51482;47.014;7.652;2023-02-15T16:09:39;18.80;52.50
64951;DHT22;51482;47.014;7.652;2023-02-15T16:12:14;18.60;53.20
64951;DHT22;51482;47.014;7.652;2023-02-15T16:14:41;18.60;53.40
64951;DHT22;51482;47.014;7.652;2023-02-15T16:17:25;18.20;53.30
64951;DHT22;51482;47.014;7.652;2023-02-15T16:19:52;18.00;54.70
64951;DHT22;51482;47.014;7.652;2023-02-15T16:22:24;17.90;54.50
64951;DHT22;51482;47.014;7.652;2023-02-15T16:25:34;17.90;54.40
64951;DHT22;51482;47.014;7.652;2023-02-15T16:28:13;17.80;55.20
64951;DHT22;51482;47.014;7.652;2023-02-15T16:30:40;17.40;54.50
64951;DHT22;51482;47.014;7.652;2023-02-15T16:33:10;16.60;55.10
64951;DHT22;51482;47.014;7.652;2023-02-15T16:35:38;15.80;56.60
64951;DHT22;51482;47.014;7.652;2023-02-15T16:38:04;15.40;58.10
64951;DHT22;51482;47.014;7.652;2023-02-15T16:40:45;15.10;58.40
64951;DHT22;51482;47.014;7.652;2023-02-15T16:43:19;14.50;59.70
64951;DHT22;51482;47.014;7.652;2023-02-15T16:45:47;14.20;61.10
64951;DHT22;51482;47.014;7.652;2023-02-15T16:48:18;14.00;61.50
64951;DHT22;51482;47.014;7.652;2023-02-15T16:50:52;13.60;62.90
64951;DHT22;51482;47.014;7.652;2023-02-15T16:53:25;13.40;63.90
64951;DHT22;51482;47.014;7.652;2023-02-15T16:55:54;13.10;63.50
64951;DHT22;51482;47.014;7.652;2023-02-15T16:58:26;13.00;64.30
64951;DHT22;51482;47.014;7.652;2023-02-15T17:00:57;12.70;65.50
64951;DHT22;51482;47.014;7.652;2023-02-15T17:03:23;12.60;66.00
64951;DHT22;51482;47.014;7.652;2023-02-15T17:05:58;12.50;67.90
64951;DHT22;51482;47.014;7.652;2023-02-15T17:08:35;12.20;68.60
64951;DHT22;51482;47.014;7.652;2023-02-15T17:13:35;11.80;69.80
64951;DHT22;51482;47.014;7.652;2023-02-15T17:20:55;11.10;71.00
64951;DHT22;51482;47.014;7.652;2023-02-15T17:23:35;10.80;72.60
64951;DHT22;51482;47.014;7.652;2023-02-15T17:26:11;10.50;74.10
64951;DHT22;51482;47.014;7.652;2023-02-15T17:28:38;10.30;74.80
64951;DHT22;51482;47.014;7.652;2023-02-15T17:31:12;10.10;75.20
64951;DHT22;51482;47.014;7.652;2023-02-15T17:33:39;10.00;77.30
64951;DHT22;51482;47.014;7.652;2023-02-15T17:36:14;9.90;79.20
64951;DHT22;51482;47.014;7.652;2023-02-15T17:39:02;9.90;81.10
64951;DHT22;51482;47.014;7.652;2023-02-15T17:41:28;9.70;83.10
64951;DHT22;51482;47.014;7.652;2023-02-15T17:43:54;9.60;85.90
64951;DHT22;51482;47.014;7.652;2023-02-15T17:46:21;9.40;88.80
64951;DHT22;51482;47.014;7.652;2023-02-15T17:48:52;9.30;90.30
64951;DHT22;51482;47.014;7.652;2023-02-15T17:51:19;9.50;91.80
64951;DHT22;51482;47.014;7.652;2023-02-15T17:53:45;8.90;93.10
64951;DHT22;51482;47.014;7.652;2023-02-15T17:56:29;8.80;94.90
64951;DHT22;51482;47.014;7.652;2023-02-15T17:58:55;8.90;97.30
64951;DHT22;51482;47.014;7.652;2023-02-15T18:01:21;8.70;97.70
64951;DHT22;51482;47.014;7.652;2023-02-15T18:04:08;8.60;98.90
64951;DHT22;51482;47.014;7.652;2023-02-15T18:06:55;8.40;99.90
64951;DHT22;51482;47.014;7.652;2023-02-15T18:09:39;8.30;99.90
64951;DHT22;51482;47.014;7.652;2023-02-15T18:12:34;8.60;99.90
64951;DHT22;51482;47.014;7.652;2023-02-15T18:15:02;7.70;99.90
64951;DHT22;51482;47.014;7.652;2023-02-15T18:17:41;8.10;99.90
64951;DHT22;51482;47.014;7.652;2023-02-15T18:20:17;8.60;99.90
64951;DHT22;51482;47.014;7.652;2023-02-15T18:22:44;8.10;99.90
64951;DHT22;51482;47.014;7.652;2023-02-15T18:25:15;8.60;99.90
64951;DHT22;51482;47.014;7.652;2023-02-15T18:27:41;7.90;99.90
64951;DHT22;51482;47.014;7.652;2023-02-15T18:30:12;8.20;99.90
64951;DHT22;51482;47.014;7.652;2023-02-15T18:32:38;7.70;99.90
64951;DHT22;51482;47.014;7.652;2023-02-15T18:35:05;8.20;99.90
64951;DHT22;51482;47.014;7.652;2023-02-15T18:37:32;7.50;99.90
64951;DHT22;51482;47.014;7.652;2023-02-15T18:39:59;7.40;99.90